Time;durP1;ratioP1;P1;durP2;ratioP2;P2;SDS_P1;SDS_P2;PMS_P1;PMS_P2;Temp;Humidity;BMP_temperature;BMP_pressure;BME280_temperature;BME280_humidity;BME280_pressure;Samples;Min_cycle;Max_cycle;Signal;HPM_P1;HPM_P2
2022/12/07 00:01:25;;;;;;;19.83;10.30;;;;;;;1.48;96.32;100664.13;4966754;28;20221;-67
2022/12/07 00:03:53;;;;;;;19.40;10.53;;;;;;;1.51;96.30;100669.50;4960836;28;20305;-67
2022/12/07 00:06:20;;;;;;;18.40;9.23;;;;;;;1.66;95.34;100680.78;4965401;28;20346;-67
2022/12/07 00:08:47;;;;;;;18.77;9.40;;;;;;;1.76;95.02;100679.53;4968158;28;21027;-67
2022/12/07 00:11:17;;;;;;;17.30;9.87;;;;;;;1.82;94.71;100677.25;4968410;28;20194;-67
2022/12/07 00:13:44;;;;;;;18.43;9.67;;;;;;;1.88;94.19;100662.78;4963574;28;20300;-67
2022/12/07 00:16:13;;;;;;;18.07;9.57;;;;;;;1.95;93.45;100669.22;4966849;28;20341;-67
2022/12/07 00:18:40;;;;;;;20.53;9.60;;;;;;;1.84;94.17;100652.13;4965558;28;20280;-67
2022/12/07 00:21:11;;;;;;;17.50;9.13;;;;;;;1.81;94.36;100647.63;4963604;28;20229;-68
2022/12/07 00:23:38;;;;;;;17.73;8.87;;;;;;;1.80;94.36;100647.56;4966618;28;20311;-67
2022/12/07 00:26:07;;;;;;;16.23;9.30;;;;;;;1.79;94.32;100636.22;4963636;28;20586;-67
2022/12/07 00:28:34;;;;;;;16.80;9.43;;;;;;;1.75;94.34;100626.44;4965709;28;20627;-67
2022/12/07 00:31:02;;;;;;;18.53;9.57;;;;;;;1.78;94.05;100631.81;4966336;28;20666;-67
2022/12/07 00:33:29;;;;;;;16.63;8.93;;;;;;;1.77;94.27;100629.13;4967959;28;20227;-67
2022/12/07 00:35:56;;;;;;;20.40;10.03;;;;;;;1.78;94.00;100630.91;4971591;28;20582;-67
2022/12/07 00:38:23;;;;;;;17.53;8.97;;;;;;;1.73;94.06;100616.72;4960354;28;20647;-67
2022/12/07 00:41:01;;;;;;;19.13;9.47;;;;;;;1.75;94.17;100623.81;4966714;28;20305;-67
2022/12/07 00:43:28;;;;;;;18.07;9.37;;;;;;;1.71;93.76;100616.66;4968242;28;20306;-67
2022/12/07 00:45:55;;;;;;;17.43;8.93;;;;;;;1.61;93.30;100610.88;4960804;28;20300;-67
2022/12/07 00:48:22;;;;;;;17.10;9.00;;;;;;;1.56;92.80;100619.31;4965544;28;20281;-67
2022/12/07 00:50:49;;;;;;;21.30;9.17;;;;;;;1.41;92.70;100621.13;4967712;28;20282;-67
2022/12/07 00:53:16;;;;;;;17.77;9.50;;;;;;;1.32;92.98;100625.88;4968391;28;20204;-67
2022/12/07 00:55:43;;;;;;;17.80;9.00;;;;;;;1.37;93.57;100639.16;4965431;28;20197;-67
2022/12/07 00:58:10;;;;;;;17.63;9.13;;;;;;;1.41;93.94;100633.28;4968287;28;20233;-67
2022/12/07 01:00:38;;;;;;;15.90;8.30;;;;;;;1.46;94.27;100627.50;4961964;28;20294;-67
2022/12/07 01:03:05;;;;;;;18.60;8.00;;;;;;;1.63;93.76;100625.81;4964049;28;20735;-67
2022/12/07 01:05:32;;;;;;;15.00;8.70;;;;;;;1.78;92.68;100618.75;4968587;28;20289;-67
2022/12/07 01:07:59;;;;;;;14.23;7.57;;;;;;;1.72;93.07;100615.81;4961084;28;20642;-67
2022/12/07 01:10:27;;;;;;;14.10;7.80;;;;;;;1.68;92.90;100610.38;4963678;28;20195;-67
2022/12/07 01:12:53;;;;;;;13.70;7.73;;;;;;;1.59;92.94;100608.16;4968855;28;20193;-67
2022/12/07 01:15:19;;;;;;;15.03;8.40;;;;;;;1.62;92.92;100603.13;4962949;28;20320;-67
2022/12/07 01:17:46;;;;;;;13.97;7.93;;;;;;;1.73;92.27;100606.28;4967852;28;20671;-67
2022/12/07 01:20:12;;;;;;;15.60;7.97;;;;;;;1.71;92.51;100615.75;4964618;28;20297;-67
2022/12/07 01:22:40;;;;;;;15.57;8.43;;;;;;;1.63;92.32;100607.53;4958426;28;20246;-67
2022/12/07 01:25:08;;;;;;;15.40;7.87;;;;;;;1.72;91.73;100605.38;4967658;28;20313;-67
2022/12/07 01:27:35;;;;;;;15.57;7.63;;;;;;;1.61;92.25;100590.88;4967932;28;20737;-67
2022/12/07 01:30:04;;;;;;;15.97;7.80;;;;;;;1.72;91.69;100596.66;4969740;28;20674;-67
2022/12/07 01:32:30;;;;;;;15.63;8.33;;;;;;;1.85;91.22;100602.59;4971299;28;20199;-67
2022/12/07 01:34:56;;;;;;;14.87;8.03;;;;;;;1.80;91.32;100592.72;4970272;28;20301;-67
2022/12/07 01:37:23;;;;;;;14.83;7.83;;;;;;;1.92;91.22;100605.50;4969568;28;20204;-67
2022/12/07 01:39:50;;;;;;;15.57;8.23;;;;;;;1.83;91.32;100603.31;4968582;28;20222;-67
2022/12/07 01:42:18;;;;;;;15.13;8.10;;;;;;;1.82;91.31;100611.97;4967444;28;20310;-67
2022/12/07 01:45:25;;;;;;;12.47;6.77;;;;;;;1.82;91.20;100606.75;4969947;28;20304;-67
2022/12/07 01:47:55;;;;;;;13.30;7.07;;;;;;;1.83;91.22;100608.53;4969349;28;20201;-67
2022/12/07 01:50:26;;;;;;;15.63;7.93;;;;;;;1.81;91.50;100607.56;4971249;28;20263;-67
2022/12/07 01:52:56;;;;;;;14.67;7.17;;;;;;;1.90;90.98;100600.19;4970921;28;20281;-67
2022/12/07 01:55:23;;;;;;;13.33;7.13;;;;;;;1.95;90.80;100600.44;4967115;28;20226;-67
2022/12/07 01:57:53;;;;;;;15.07;7.37;;;;;;;2.12;90.17;100591.75;4969664;28;20202;-67
2022/12/07 02:00:20;;;;;;;13.10;7.13;;;;;;;2.24;89.81;100602.81;4967701;28;20207;-67
2022/12/07 02:03:09;;;;;;;14.53;8.00;;;;;;;2.25;89.75;100590.63;4968813;28;20303;-67
2022/12/07 02:05:38;;;;;;;12.60;7.50;;;;;;;2.24;90.09;100597.56;4966322;28;20215;-67
2022/12/07 02:08:04;;;;;;;12.37;7.17;;;;;;;2.34;89.98;100598.91;4969571;28;20208;-67
2022/12/07 02:10:32;;;;;;;13.40;7.77;;;;;;;2.25;90.16;100580.19;4969374;28;20289;-67
2022/12/07 02:13:03;;;;;;;12.97;7.00;;;;;;;2.34;90.16;100585.84;4969063;28;20244;-67
2022/12/07 02:15:45;;;;;;;13.70;7.57;;;;;;;2.32;90.21;100577.94;4967251;28;20298;-67
2022/12/07 02:18:39;;;;;;;14.87;7.67;;;;;;;2.30;90.19;100576.97;4967912;28;20201;-67
2022/12/07 02:21:09;;;;;;;13.60;7.47;;;;;;;2.32;90.42;100575.31;4965324;28;20331;-67
2022/12/07 02:23:59;;;;;;;12.83;7.70;;;;;;;2.35;90.12;100574.56;4966554;28;20718;-67
2022/12/07 02:26:54;;;;;;;14.97;6.87;;;;;;;2.33;90.15;100571.00;4969087;28;20200;-67
2022/12/07 02:29:24;;;;;;;13.57;7.07;;;;;;;2.35;90.19;100575.47;4969303;28;20267;-67
2022/12/07 02:32:08;;;;;;;13.00;7.37;;;;;;;2.44;90.35;100564.59;4968634;28;20196;-67
2022/12/07 02:35:04;;;;;;;12.50;7.20;;;;;;;2.54;90.31;100581.63;4964676;28;20761;-67
2022/12/07 02:37:48;;;;;;;13.33;6.80;;;;;;;2.56;90.12;100577.34;4962404;28;20229;-67
2022/12/07 02:40:35;;;;;;;14.47;8.10;;;;;;;2.55;89.94;100573.84;4958303;28;20278;-67
2022/12/07 02:43:06;;;;;;;10.90;6.80;;;;;;;2.55;90.22;100576.47;4959407;28;20636;-67
2022/12/07 02:45:34;;;;;;;12.23;7.17;;;;;;;2.59;89.86;100569.66;4967090;28;20207;-67
2022/12/07 02:48:03;;;;;;;14.97;7.43;;;;;;;2.65;89.63;100567.34;4967050;28;20531;-67
2022/12/07 02:50:30;;;;;;;14.43;7.50;;;;;;;2.70;89.59;100560.59;4969914;28;20203;-67
2022/12/07 02:52:56;;;;;;;12.30;6.73;;;;;;;2.78;89.16;100562.75;4969141;28;20280;-67
2022/12/07 02:55:30;;;;;;;12.70;7.50;;;;;;;2.88;89.04;100565.81;4969784;28;20223;-67
2022/12/07 02:58:14;;;;;;;11.27;6.60;;;;;;;2.97;88.79;100561.00;4964915;28;20228;-67
2022/12/07 03:01:28;;;;;;;12.37;6.77;;;;;;;2.99;88.35;100562.88;4961813;28;20628;-67
2022/12/07 03:04:20;;;;;;;14.47;7.07;;;;;;;3.06;87.90;100556.19;4967694;28;20308;-67
2022/12/07 03:06:57;;;;;;;12.13;7.10;;;;;;;3.25;87.27;100557.94;4964039;28;20743;-67
2022/12/07 03:09:46;;;;;;;12.57;7.13;;;;;;;3.27;87.17;100553.66;4970076;28;20291;-67
2022/12/07 03:12:18;;;;;;;11.80;6.93;;;;;;;3.30;86.37;100556.41;4965728;28;20275;-67
2022/12/07 03:14:52;;;;;;;14.00;7.13;;;;;;;3.19;86.75;100549.78;4968372;28;20227;-67
2022/12/07 03:17:24;;;;;;;11.30;6.60;;;;;;;3.16;86.89;100545.31;4966644;28;20297;-67
2022/12/07 03:19:53;;;;;;;12.50;6.50;;;;;;;3.02;87.27;100543.78;4968470;28;20297;-67
2022/12/07 03:22:21;;;;;;;11.10;6.77;;;;;;;2.91;87.70;100537.19;4964123;28;20228;-67
2022/12/07 03:24:58;;;;;;;11.23;6.90;;;;;;;2.97;88.13;100540.97;4965449;28;20305;-67
2022/12/07 03:27:31;;;;;;;11.40;6.77;;;;;;;2.91;88.33;100545.03;4964953;28;20281;-67
2022/12/07 03:30:04;;;;;;;12.33;7.00;;;;;;;2.98;88.43;100547.09;4965911;28;20234;-67
2022/12/07 03:32:37;;;;;;;11.30;6.40;;;;;;;3.02;88.14;100542.06;4967912;28;20222;-67
2022/12/07 03:35:09;;;;;;;12.10;6.60;;;;;;;3.07;88.12;100535.31;4950630;28;20646;-67
2022/12/07 03:37:52;;;;;;;12.53;6.27;;;;;;;2.98;87.69;100540.16;4961321;28;20208;-67
2022/12/07 03:40:25;;;;;;;10.20;6.17;;;;;;;2.91;88.18;100529.34;4969085;28;20290;-67
2022/12/07 03:42:53;;;;;;;10.93;6.47;;;;;;;2.82;88.12;100527.19;4963807;28;21658;-67
2022/12/07 03:45:25;;;;;;;11.03;6.37;;;;;;;2.78;88.87;100531.38;4965947;28;20303;-67
2022/12/07 03:48:07;;;;;;;10.40;6.10;;;;;;;2.78;88.85;100538.31;4967950;28;20204;-67
2022/12/07 03:50:43;;;;;;;11.57;6.30;;;;;;;2.86;89.01;100546.53;4965232;28;20203;-67
2022/12/07 03:53:22;;;;;;;12.87;6.70;;;;;;;2.94;88.88;100543.44;4960012;28;20239;-67
2022/12/07 03:55:49;;;;;;;11.40;6.67;;;;;;;3.22;87.17;100540.38;4968198;28;20257;-67
2022/12/07 03:58:19;;;;;;;12.57;6.30;;;;;;;3.18;86.85;100541.03;4962420;28;20202;-67
2022/12/07 04:00:47;;;;;;;12.33;6.33;;;;;;;3.06;87.13;100530.03;4966996;28;20207;-67
2022/12/07 04:03:13;;;;;;;11.63;6.73;;;;;;;3.06;87.47;100533.53;4963429;28;20793;-67
2022/12/07 04:05:40;;;;;;;10.83;6.27;;;;;;;3.08;87.39;100528.38;4966334;28;20581;-67
2022/12/07 04:08:07;;;;;;;13.53;7.07;;;;;;;3.02;87.42;100525.47;4968078;28;20663;-67
2022/12/07 04:10:33;;;;;;;10.07;6.27;;;;;;;3.05;87.57;100523.00;4969034;28;20313;-67
2022/12/07 04:12:59;;;;;;;11.83;7.07;;;;;;;3.07;87.29;100519.63;4968584;28;20632;-67
2022/12/07 04:15:26;;;;;;;11.90;6.87;;;;;;;3.11;87.54;100533.75;4963825;28;20233;-67
2022/12/07 04:17:53;;;;;;;11.63;6.77;;;;;;;3.14;87.41;100526.03;4965509;28;20216;-67
2022/12/07 04:20:20;;;;;;;13.47;7.30;;;;;;;3.21;87.37;100529.84;4966921;28;20235;-67
2022/12/07 04:22:46;;;;;;;13.67;7.17;;;;;;;3.22;87.12;100532.53;4963776;28;20516;-67
2022/12/07 04:25:12;;;;;;;11.47;7.17;;;;;;;3.33;86.88;100530.38;4969140;28;20713;-67
2022/12/07 04:27:39;;;;;;;12.10;7.27;;;;;;;3.58;85.56;100540.19;4964064;28;20287;-67
2022/12/07 04:30:06;;;;;;;12.70;7.03;;;;;;;3.46;85.59;100535.31;4968594;28;20548;-67
2022/12/07 04:32:32;;;;;;;11.20;6.63;;;;;;;3.40;85.91;100530.72;4966020;28;20211;-67
2022/12/07 04:34:59;;;;;;;10.37;6.17;;;;;;;3.39;86.42;100531.53;4964081;28;20223;-67
2022/12/07 04:37:25;;;;;;;13.37;7.07;;;;;;;3.53;85.87;100524.28;4966298;28;20357;-67
2022/12/07 04:39:51;;;;;;;11.67;7.20;;;;;;;3.49;86.02;100531.94;4967454;28;20209;-67
2022/12/07 04:42:18;;;;;;;11.63;7.13;;;;;;;3.47;85.97;100522.28;4958775;28;20666;-67
2022/12/07 04:44:44;;;;;;;13.97;7.13;;;;;;;3.45;86.46;100526.56;4965165;28;20216;-67
2022/12/07 04:47:11;;;;;;;13.63;7.00;;;;;;;3.44;86.65;100527.41;4947937;28;20229;-67
2022/12/07 04:49:37;;;;;;;12.30;7.07;;;;;;;3.45;86.64;100530.91;4964345;28;20626;-67
2022/12/07 04:52:04;;;;;;;12.87;7.53;;;;;;;3.45;86.76;100531.81;4966138;28;20190;-67
2022/12/07 04:54:30;;;;;;;10.83;6.90;;;;;;;3.50;86.62;100529.38;4967707;28;20223;-67
2022/12/07 04:56:56;;;;;;;12.70;7.10;;;;;;;3.50;86.43;100523.25;4969926;28;20287;-67
2022/12/07 04:59:23;;;;;;;12.07;7.10;;;;;;;3.49;86.66;100524.97;4972440;28;20208;-67
2022/12/07 05:01:49;;;;;;;11.30;7.03;;;;;;;3.50;86.67;100536.34;4964689;28;20304;-67
2022/12/07 05:04:17;;;;;;;11.63;7.10;;;;;;;3.56;86.37;100529.66;4972378;28;20220;-67
2022/12/07 05:06:43;;;;;;;12.53;7.50;;;;;;;3.58;85.98;100533.22;4971138;28;20232;-67
2022/12/07 05:09:10;;;;;;;13.47;7.60;;;;;;;3.73;85.58;100543.50;4968987;28;20229;-67
2022/12/07 05:11:39;;;;;;;11.50;7.33;;;;;;;3.79;85.11;100522.78;4971019;28;20240;-67
2022/12/07 05:14:26;;;;;;;13.20;7.47;;;;;;;3.73;85.24;100527.78;4985996;23;20569;-70
2022/12/07 05:16:53;;;;;;;12.30;7.27;;;;;;;3.77;85.02;100532.31;4967934;28;20706;-70
2022/12/07 05:19:20;;;;;;;11.63;7.03;;;;;;;3.64;85.42;100525.66;4963466;28;20197;-68
2022/12/07 05:21:47;;;;;;;12.97;6.77;;;;;;;3.73;84.95;100533.91;4972314;28;20204;-68
2022/12/07 05:24:15;;;;;;;10.33;6.40;;;;;;;3.84;84.70;100538.69;4971653;28;20225;-68
2022/12/07 05:26:41;;;;;;;11.97;7.20;;;;;;;3.73;84.81;100531.28;4966914;28;20209;-67
2022/12/07 05:29:12;;;;;;;15.20;6.97;;;;;;;3.70;84.76;100525.03;4966654;28;20206;-68
2022/12/07 05:31:38;;;;;;;12.53;7.30;;;;;;;3.84;84.53;100536.09;4968268;28;20292;-68
2022/12/07 05:34:04;;;;;;;10.10;6.90;;;;;;;3.73;84.66;100525.16;4967756;28;20221;-67
2022/12/07 05:36:31;;;;;;;14.63;7.50;;;;;;;3.75;84.93;100521.78;4970174;28;20197;-70
2022/12/07 05:38:58;;;;;;;12.07;7.10;;;;;;;3.71;84.93;100527.72;4970850;28;20248;-70
2022/12/07 05:44:09;;;;;;;12.20;6.83;;;;;;;3.73;85.65;100528.66;4968411;28;20783;-70
2022/12/07 05:46:36;;;;;;;13.10;7.20;;;;;;;3.83;84.95;100529.94;4970321;28;20205;-69
2022/12/07 05:49:02;;;;;;;12.83;7.20;;;;;;;3.80;84.73;100528.94;4970787;28;20202;-70
2022/12/07 05:51:29;;;;;;;10.80;7.13;;;;;;;3.77;84.70;100525.34;4971341;28;20236;-68
2022/12/07 05:53:55;;;;;;;11.07;6.60;;;;;;;3.69;85.25;100518.00;4967918;28;20272;-68
2022/12/07 05:56:22;;;;;;;10.97;7.00;;;;;;;3.69;85.60;100521.50;4972703;28;20205;-68
2022/12/07 06:01:34;;;;;;;12.97;7.33;;;;;;;3.85;84.69;100535.25;4968589;28;20204;-68
2022/12/07 06:04:00;;;;;;;13.03;7.47;;;;;;;3.74;84.71;100517.38;4970087;28;20249;-68
2022/12/07 06:06:26;;;;;;;12.53;7.80;;;;;;;3.78;85.26;100528.88;4971883;28;20555;-69
2022/12/07 06:08:53;;;;;;;13.43;6.97;;;;;;;3.77;85.68;100532.31;4967313;28;20206;-67
2022/12/07 06:14:04;;;;;;;11.33;7.17;;;;;;;3.74;85.43;100524.31;4969448;28;20320;-65
2022/12/07 06:16:31;;;;;;;13.00;6.83;;;;;;;3.67;85.36;100502.22;4966644;28;20205;-66
2022/12/07 06:18:57;;;;;;;11.73;7.40;;;;;;;3.87;84.96;100525.72;4967096;28;20198;-68
2022/12/07 06:21:25;;;;;;;13.70;7.30;;;;;;;3.90;84.71;100529.38;4965024;28;20736;-67
2022/12/07 06:23:52;;;;;;;13.77;7.47;;;;;;;3.93;84.35;100529.50;4969699;28;20331;-68
2022/12/07 06:26:18;;;;;;;13.20;7.37;;;;;;;3.70;84.69;100510.22;4968843;28;20297;-69
2022/12/07 06:28:44;;;;;;;12.17;6.47;;;;;;;3.80;85.09;100521.06;4968919;28;20193;-69
2022/12/07 06:31:11;;;;;;;13.13;7.20;;;;;;;3.54;85.69;100515.59;4968192;28;20201;-70
2022/12/07 06:33:39;;;;;;;11.00;6.50;;;;;;;3.71;85.79;100526.81;4969094;28;20261;-67
2022/12/07 06:36:06;;;;;;;12.23;7.63;;;;;;;3.71;85.46;100522.47;4967776;28;20198;-69
2022/12/07 06:38:33;;;;;;;12.57;7.67;;;;;;;3.70;85.32;100520.69;4970849;28;20612;-69
2022/12/07 06:40:59;;;;;;;11.97;7.20;;;;;;;3.70;85.15;100523.31;4969467;28;20221;-69
2022/12/07 06:43:25;;;;;;;14.27;7.77;;;;;;;3.54;85.51;100518.22;4969771;28;20256;-68
2022/12/07 06:45:52;;;;;;;11.40;6.73;;;;;;;3.33;86.03;100523.41;4967037;28;20224;-70
2022/12/07 06:48:18;;;;;;;13.40;7.20;;;;;;;3.27;86.66;100523.16;4971652;28;20206;-69
2022/12/07 06:50:45;;;;;;;13.43;6.70;;;;;;;3.13;87.02;100509.44;4953621;28;20388;-68
2022/12/07 06:53:19;;;;;;;11.53;6.80;;;;;;;3.24;87.19;100530.88;4967789;28;20299;-69
2022/12/07 06:55:46;;;;;;;13.23;7.40;;;;;;;3.26;86.97;100525.72;4968387;28;20205;-69
2022/12/07 06:58:12;;;;;;;12.53;6.93;;;;;;;3.40;86.60;100528.09;4969242;28;20328;-70
2022/12/07 07:00:39;;;;;;;11.53;6.73;;;;;;;3.43;86.69;100529.94;4966648;28;20256;-69
2022/12/07 07:03:05;;;;;;;11.53;6.93;;;;;;;3.56;86.15;100534.88;4968975;28;20224;-69
2022/12/07 07:05:31;;;;;;;12.67;6.93;;;;;;;3.61;85.87;100522.91;4965918;28;20263;-70
2022/12/07 07:07:58;;;;;;;12.03;7.17;;;;;;;3.59;85.86;100529.78;4956206;28;20210;-68
2022/12/07 07:10:44;;;;;;;13.47;7.33;;;;;;;3.66;85.88;100531.84;4965922;28;20200;-68
2022/12/07 07:13:10;;;;;;;11.90;7.07;;;;;;;3.63;86.01;100522.97;4967943;28;20196;-68
2022/12/07 07:15:37;;;;;;;13.97;8.00;;;;;;;3.60;86.33;100528.97;4969971;28;20255;-69
2022/12/07 07:18:04;;;;;;;12.33;7.53;;;;;;;3.63;86.31;100536.97;4963236;28;20260;-70
2022/12/07 07:20:33;;;;;;;12.90;7.87;;;;;;;3.68;85.98;100542.41;4971880;28;20215;-68
2022/12/07 07:22:59;;;;;;;12.90;7.80;;;;;;;3.59;86.35;100541.97;4966617;28;20319;-67
2022/12/07 07:25:26;;;;;;;10.47;6.90;;;;;;;3.43;86.69;100543.94;4963176;28;20231;-69
2022/12/07 07:27:52;;;;;;;14.43;6.70;;;;;;;3.44;86.77;100550.97;4963505;28;20294;-68
2022/12/07 07:30:19;;;;;;;13.87;7.50;;;;;;;3.27;87.22;100551.94;4971653;28;20209;-67
2022/12/07 07:32:45;;;;;;;12.90;7.27;;;;;;;3.27;87.32;100537.97;4970720;28;20224;-68
2022/12/07 07:35:12;;;;;;;11.27;6.73;;;;;;;3.24;87.43;100550.91;4968449;28;20265;-68
2022/12/07 07:37:38;;;;;;;13.37;6.80;;;;;;;3.11;87.51;100545.09;4970344;28;20292;-68
2022/12/07 07:40:05;;;;;;;12.60;7.80;;;;;;;3.19;87.39;100552.41;4971665;28;20294;-70
2022/12/07 07:42:31;;;;;;;14.07;7.33;;;;;;;3.11;88.10;100563.41;4971419;28;20252;-68
2022/12/07 07:44:58;;;;;;;14.40;7.40;;;;;;;3.14;87.68;100560.94;4966543;28;20224;-68
2022/12/07 07:47:24;;;;;;;13.20;7.57;;;;;;;3.22;87.42;100563.94;4970178;28;20233;-68
2022/12/07 07:49:51;;;;;;;12.97;7.77;;;;;;;3.10;87.56;100564.25;4970824;28;20196;-70
2022/12/07 07:52:17;;;;;;;12.20;7.27;;;;;;;3.19;87.72;100558.53;4969084;28;20202;-69
2022/12/07 07:54:43;;;;;;;15.03;7.70;;;;;;;3.10;87.76;100551.16;4970874;28;20250;-70
2022/12/07 07:57:10;;;;;;;13.23;7.50;;;;;;;3.13;88.40;100564.38;4967392;28;20202;-69
2022/12/07 07:59:36;;;;;;;12.10;7.40;;;;;;;3.10;88.67;100560.72;4967913;28;20237;-68
2022/12/07 08:02:02;;;;;;;16.93;8.70;;;;;;;3.20;88.53;100562.03;4969872;28;20194;-69
2022/12/07 08:04:29;;;;;;;17.90;8.17;;;;;;;3.22;87.86;100563.94;4970307;28;20303;-68
2022/12/07 08:06:56;;;;;;;13.63;7.37;;;;;;;3.08;87.79;100552.81;4969021;28;20251;-71
2022/12/07 08:09:23;;;;;;;12.07;7.20;;;;;;;2.98;88.18;100557.56;4969813;28;20673;-69
2022/12/07 08:11:49;;;;;;;12.00;7.43;;;;;;;2.87;88.89;100556.19;4968670;28;20257;-69
2022/12/07 08:14:15;;;;;;;14.00;7.80;;;;;;;2.84;89.30;100549.09;4970608;28;20724;-70
2022/12/07 08:16:42;;;;;;;14.70;6.97;;;;;;;2.91;89.15;100555.50;4969071;28;20295;-69
2022/12/07 08:19:09;;;;;;;14.60;7.20;;;;;;;2.93;89.14;100574.78;4966362;28;20197;-66
2022/12/07 08:21:37;;;;;;;15.87;7.03;;;;;;;2.99;89.15;100569.81;4968702;28;20201;-67
2022/12/07 08:24:04;;;;;;;17.87;7.73;;;;;;;2.97;89.33;100571.47;4970243;28;20229;-68
2022/12/07 08:26:30;;;;;;;13.30;7.27;;;;;;;3.15;88.51;100565.34;4969204;28;20293;-68
2022/12/07 08:28:56;;;;;;;11.40;7.13;;;;;;;3.14;88.69;100573.13;4968695;28;20353;-68
2022/12/07 08:31:23;;;;;;;13.00;7.07;;;;;;;3.37;87.75;100568.94;4969595;28;20240;-68
2022/12/07 08:33:49;;;;;;;13.60;7.10;;;;;;;3.37;87.43;100566.34;4970461;28;20220;-68
2022/12/07 08:36:16;;;;;;;13.03;7.37;;;;;;;3.27;87.73;100561.50;4968149;28;20585;-68
2022/12/07 08:38:43;;;;;;;14.10;7.17;;;;;;;3.25;88.02;100569.31;4969540;28;20211;-68
2022/12/07 08:41:29;;;;;;;14.50;7.80;;;;;;;3.26;88.36;100576.31;4966401;28;20471;-68
2022/12/07 08:43:56;;;;;;;11.77;7.33;;;;;;;3.33;88.59;100577.50;4969057;28;20621;-69
2022/12/07 08:46:40;;;;;;;18.67;7.60;;;;;;;3.38;88.02;100575.97;4967330;28;20624;-68
2022/12/07 08:49:16;;;;;;;13.43;7.80;;;;;;;3.38;88.39;100584.72;4969474;28;20201;-68
2022/12/07 08:51:42;;;;;;;11.57;7.00;;;;;;;3.42;88.26;100572.66;4966599;28;20579;-69
2022/12/07 08:54:16;;;;;;;11.37;6.73;;;;;;;3.58;87.73;100571.59;4967094;28;20220;-65
2022/12/07 08:56:44;;;;;;;10.97;6.57;;;;;;;3.82;87.65;100585.78;4966962;28;20198;-71
2022/12/07 08:59:14;;;;;;;12.43;6.03;;;;;;;4.17;84.75;100576.81;4968907;28;20276;-67
2022/12/07 09:01:41;;;;;;;11.20;6.70;;;;;;;4.34;84.25;100586.25;4966200;28;20624;-68
2022/12/07 09:04:07;;;;;;;10.83;6.37;;;;;;;4.50;83.29;100584.28;4966859;28;20337;-69
2022/12/07 09:06:34;;;;;;;12.70;6.27;;;;;;;4.50;83.07;100581.66;4967614;28;20207;-70
2022/12/07 09:09:02;;;;;;;9.67;6.30;;;;;;;4.43;83.52;100572.66;4968146;28;20745;-71
2022/12/07 09:11:29;;;;;;;9.67;6.07;;;;;;;4.38;83.62;100582.03;4963703;28;20201;-69
2022/12/07 09:13:56;;;;;;;11.40;6.77;;;;;;;4.29;84.09;100581.66;4967422;28;20693;-69
2022/12/07 09:16:22;;;;;;;8.97;5.90;;;;;;;4.24;84.68;100581.47;4970280;28;20212;-69
2022/12/07 09:18:49;;;;;;;9.33;5.77;;;;;;;4.21;84.88;100586.59;4968162;28;20570;-69
2022/12/07 09:21:15;;;;;;;10.60;6.03;;;;;;;4.22;85.32;100588.38;4970283;28;20617;-69
2022/12/07 09:23:42;;;;;;;10.30;5.93;;;;;;;4.37;84.09;100586.38;4968874;28;20354;-71
2022/12/07 09:26:09;;;;;;;16.40;6.47;;;;;;;4.79;82.04;100590.66;4952270;28;20229;-66
2022/12/07 09:28:36;;;;;;;8.23;5.47;;;;;;;4.95;81.20;100583.47;4969181;28;20229;-69
2022/12/07 09:31:05;;;;;;;9.47;5.50;;;;;;;5.20;80.96;100576.53;4969938;28;20198;-67
2022/12/07 09:33:57;;;;;;;11.17;6.13;;;;;;;5.35;81.00;100585.00;4966415;28;20717;-68
2022/12/07 09:36:25;;;;;;;10.07;5.77;;;;;;;5.48;77.85;100575.81;4965077;28;20268;-68
2022/12/07 09:38:51;;;;;;;9.83;6.10;;;;;;;5.68;78.22;100582.72;4968680;28;20612;-64
2022/12/07 09:41:19;;;;;;;9.50;5.40;;;;;;;5.84;75.79;100563.13;4972965;28;20673;-69
2022/12/07 09:43:46;;;;;;;8.30;5.70;;;;;;;6.18;75.66;100578.34;4972115;28;20232;-69
2022/12/07 09:46:17;;;;;;;9.07;4.60;;;;;;;6.52;74.27;100572.50;4969690;28;20198;-70
2022/12/07 09:48:45;;;;;;;7.10;4.40;;;;;;;6.71;73.22;100581.84;4972820;28;20297;-66
2022/12/07 09:51:19;;;;;;;7.50;4.27;;;;;;;6.83;72.48;100577.00;4972034;28;20207;-66
2022/12/07 09:53:51;;;;;;;6.17;4.20;;;;;;;6.90;72.28;100573.69;4972086;28;20304;-67
2022/12/07 09:56:18;;;;;;;7.50;4.33;;;;;;;6.78;73.05;100578.56;4969966;28;20879;-65
2022/12/07 09:58:46;;;;;;;8.57;4.77;;;;;;;6.54;74.03;100569.06;4970219;28;20237;-67
2022/12/07 10:01:16;;;;;;;7.90;4.27;;;;;;;6.46;73.56;100567.91;4971709;28;20261;-66
2022/12/07 10:03:55;;;;;;;9.40;4.57;;;;;;;6.19;75.15;100565.25;4972032;28;20222;-65
2022/12/07 10:06:21;;;;;;;8.23;4.30;;;;;;;6.14;74.89;100564.22;4968482;28;20255;-71
2022/12/07 10:08:47;;;;;;;9.17;4.30;;;;;;;6.10;75.11;100545.66;4970497;28;20226;-66
2022/12/07 10:11:15;;;;;;;6.67;3.87;;;;;;;5.95;74.48;100552.16;4969800;28;20290;-68
2022/12/07 10:13:46;;;;;;;7.97;3.80;;;;;;;5.96;74.93;100548.69;4972011;28;20277;-65
2022/12/07 10:16:24;;;;;;;6.37;3.50;;;;;;;6.02;73.70;100549.78;4972478;28;20241;-68
2022/12/07 10:18:51;;;;;;;5.63;3.70;;;;;;;5.92;72.93;100522.25;4970983;28;20280;-63
2022/12/07 10:21:20;;;;;;;9.37;4.03;;;;;;;5.94;73.75;100534.59;4970869;28;20213;-67
2022/12/07 10:24:02;;;;;;;5.93;3.43;;;;;;;5.96;74.22;100543.44;4971547;28;20230;-67
2022/12/07 10:26:30;;;;;;;6.03;3.80;;;;;;;5.89;73.96;100530.94;4971035;28;20197;-65
2022/12/07 10:29:21;;;;;;;7.37;3.83;;;;;;;5.88;74.40;100536.09;4968921;28;20347;-67
2022/12/07 10:32:00;;;;;;;6.40;3.20;;;;;;;5.84;74.08;100529.84;4970624;28;20227;-67
2022/12/07 10:34:37;;;;;;;5.77;3.47;;;;;;;5.91;73.30;100525.72;4969885;28;20753;-66
2022/12/07 10:37:08;;;;;;;6.20;3.33;;;;;;;5.96;73.10;100525.03;4969538;28;20198;-67
2022/12/07 10:39:44;;;;;;;6.27;3.13;;;;;;;6.04;72.66;100517.44;4971736;28;20273;-68
2022/12/07 10:42:20;;;;;;;6.97;3.37;;;;;;;6.08;72.82;100518.44;4970695;28;20240;-65
2022/12/07 10:45:14;;;;;;;4.67;3.33;;;;;;;6.11;73.47;100516.78;4970740;28;20241;-68
2022/12/07 10:47:46;;;;;;;5.63;2.77;;;;;;;6.18;71.99;100510.88;4969328;28;20209;-68
2022/12/07 10:51:00;;;;;;;6.23;2.73;;;;;;;6.29;70.75;100511.22;4969298;28;20367;-68
2022/12/07 10:53:49;;;;;;;5.77;2.40;;;;;;;6.53;68.40;100514.66;4965217;28;20201;-67
2022/12/07 10:56:37;;;;;;;5.90;2.60;;;;;;;6.49;69.16;100512.78;4971297;28;20221;-67
2022/12/07 10:59:31;;;;;;;3.63;2.43;;;;;;;6.79;68.36;100509.28;4967209;28;20253;-68
2022/12/07 11:02:39;;;;;;;4.13;2.10;;;;;;;7.10;66.89;100495.28;4970882;28;20198;-67
2022/12/07 11:05:25;;;;;;;4.23;2.10;;;;;;;7.47;66.61;100505.13;4967555;28;20706;-68
2022/12/07 11:08:11;;;;;;;5.90;2.20;;;;;;;7.47;63.99;100511.28;4968284;28;20199;-68
2022/12/07 11:10:57;;;;;;;4.13;1.63;;;;;;;7.04;64.66;100500.38;4967825;28;20299;-67
2022/12/07 11:13:36;;;;;;;3.57;1.50;;;;;;;6.82;65.30;100499.78;4966891;28;20252;-68
2022/12/07 11:16:14;;;;;;;2.60;1.87;;;;;;;6.83;65.45;100498.91;4978969;23;20309;-65
2022/12/07 11:19:21;;;;;;;4.10;1.80;;;;;;;6.78;65.41;100496.97;4963744;28;20210;-64
2022/12/07 11:22:00;;;;;;;5.40;1.67;;;;;;;6.76;65.31;100491.66;4965328;28;20493;-65
2022/12/07 11:24:59;;;;;;;3.60;1.50;;;;;;;6.80;65.78;100487.38;4962692;28;20223;-65
2022/12/07 11:27:45;;;;;;;4.23;2.00;;;;;;;6.89;64.94;100485.94;4951254;28;20274;-65
2022/12/07 11:30:20;;;;;;;5.50;1.87;;;;;;;6.96;65.26;100494.00;4959818;28;20280;-62
2022/12/07 11:33:09;;;;;;;2.70;1.50;;;;;;;6.94;65.10;100487.81;4965034;28;20207;-65
2022/12/07 11:36:04;;;;;;;5.47;2.00;;;;;;;6.91;66.66;100491.25;4963881;28;20222;-64
2022/12/07 11:38:59;;;;;;;4.53;1.50;;;;;;;6.67;66.91;100480.88;4961907;28;20672;-65
2022/12/07 11:41:31;;;;;;;5.30;1.80;;;;;;;6.55;67.39;100478.75;4968264;28;20232;-65
2022/12/07 11:44:16;;;;;;;2.53;1.80;;;;;;;6.50;67.75;100483.00;4970190;28;20233;-63
2022/12/07 11:46:51;;;;;;;3.87;1.70;;;;;;;6.76;67.76;100470.59;4968684;28;20752;-64
2022/12/07 11:49:37;;;;;;;3.10;1.73;;;;;;;6.84;67.60;100470.84;4967910;28;20206;-64
2022/12/07 11:52:11;;;;;;;5.93;1.80;;;;;;;7.07;67.87;100472.41;4949953;28;20204;-64
2022/12/07 11:54:43;;;;;;;3.97;1.90;;;;;;;7.43;66.03;100462.00;4949816;28;20268;-65